sensor_id;sensor_type;location;lat;lon;timestamp;temperature;humidity
8676;DHT22;4375;52.486;13.424;2023-05-14T00:01:38;14.90;99.90
8676;DHT22;4375;52.486;13.424;2023-05-14T00:04:04;14.90;99.90
8676;DHT22;4375;52.486;13.424;2023-05-14T00:06:30;14.90;99.90
8676;DHT22;4375;52.486;13.424;2023-05-14T00:08:56;14.80;99.90
8676;DHT22;4375;52.486;13.424;2023-05-14T00:11:22;14.80;99.90
8676;DHT22;4375;52.486;13.424;2023-05-14T00:13:48;14.80;99.90
8676;DHT22;4375;52.486;13.424;2023-05-14T00:16:14;14.80;99.90
8676;DHT22;4375;52.486;13.424;2023-05-14T00:18:40;14.80;99.90
8676;DHT22;4375;52.486;13.424;2023-05-14T00:21:06;14.70;99.90
8676;DHT22;4375;52.486;13.424;2023-05-14T00:23:31;14.70;99.90
8676;DHT22;4375;52.486;13.424;2023-05-14T00:25:57;14.70;99.90
8676;DHT22;4375;52.486;13.424;2023-05-14T00:28:23;14.70;99.90
8676;DHT22;4375;52.486;13.424;2023-05-14T00:30:48;14.60;99.90
8676;DHT22;4375;52.486;13.424;2023-05-14T00:33:14;14.60;99.90
8676;DHT22;4375;52.486;13.424;2023-05-14T00:35:39;14.60;99.90
8676;DHT22;4375;52.486;13.424;2023-05-14T00:38:05;14.70;99.90
8676;DHT22;4375;52.486;13.424;2023-05-14T00:40:31;14.60;99.90
8676;DHT22;4375;52.486;13.424;2023-05-14T00:42:56;14.70;99.90
8676;DHT22;4375;52.486;13.424;2023-05-14T00:45:22;14.70;99.90
8676;DHT22;4375;52.486;13.424;2023-05-14T00:47:48;14.60;99.90
8676;DHT22;4375;52.486;13.424;2023-05-14T00:50:15;14.60;99.90
8676;DHT22;4375;52.486;13.424;2023-05-14T00:52:41;14.70;99.90
8676;DHT22;4375;52.486;13.424;2023-05-14T00:55:07;14.80;99.90
8676;DHT22;4375;52.486;13.424;2023-05-14T00:57:36;15.00;99.90
8676;DHT22;4375;52.486;13.424;2023-05-14T01:00:02;14.90;99.90
8676;DHT22;4375;52.486;13.424;2023-05-14T01:02:28;15.00;99.90
8676;DHT22;4375;52.486;13.424;2023-05-14T01:04:54;14.90;99.90
8676;DHT22;4375;52.486;13.424;2023-05-14T01:10:22;14.80;99.90
8676;DHT22;4375;52.486;13.424;2023-05-14T01:15:38;14.80;99.90
8676;DHT22;4375;52.486;13.424;2023-05-14T01:18:07;14.80;99.90
8676;DHT22;4375;52.486;13.424;2023-05-14T01:20:34;14.70;99.90
8676;DHT22;4375;52.486;13.424;2023-05-14T01:23:01;14.70;99.90
8676;DHT22;4375;52.486;13.424;2023-05-14T01:25:29;14.60;99.90
8676;DHT22;4375;52.486;13.424;2023-05-14T01:28:25;14.70;99.90
8676;DHT22;4375;52.486;13.424;2023-05-14T01:31:00;14.70;99.90
8676;DHT22;4375;52.486;13.424;2023-05-14T01:33:28;14.60;99.90
8676;DHT22;4375;52.486;13.424;2023-05-14T01:35:54;14.60;99.90
8676;DHT22;4375;52.486;13.424;2023-05-14T01:38:22;14.50;99.90
8676;DHT22;4375;52.486;13.424;2023-05-14T01:40:49;14.30;99.90
8676;DHT22;4375;52.486;13.424;2023-05-14T01:43:15;14.20;99.90
8676;DHT22;4375;52.486;13.424;2023-05-14T01:45:42;14.30;99.90
8676;DHT22;4375;52.486;13.424;2023-05-14T01:48:08;14.30;99.90
8676;DHT22;4375;52.486;13.424;2023-05-14T01:50:33;14.40;99.90
8676;DHT22;4375;52.486;13.424;2023-05-14T01:52:59;14.40;99.90
8676;DHT22;4375;52.486;13.424;2023-05-14T01:55:25;14.40;99.90
8676;DHT22;4375;52.486;13.424;2023-05-14T01:57:51;14.40;99.90
8676;DHT22;4375;52.486;13.424;2023-05-14T02:00:18;14.40;99.90
8676;DHT22;4375;52.486;13.424;2023-05-14T02:02:43;14.50;99.90
8676;DHT22;4375;52.486;13.424;2023-05-14T02:05:10;14.50;99.90
8676;DHT22;4375;52.486;13.424;2023-05-14T02:07:36;14.50;99.90
8676;DHT22;4375;52.486;13.424;2023-05-14T02:10:02;14.50;99.90
8676;DHT22;4375;52.486;13.424;2023-05-14T02:12:28;14.60;99.90
8676;DHT22;4375;52.486;13.424;2023-05-14T02:14:53;14.60;99.90
8676;DHT22;4375;52.486;13.424;2023-05-14T02:17:19;14.60;99.90
8676;DHT22;4375;52.486;13.424;2023-05-14T02:19:45;14.60;99.90
8676;DHT22;4375;52.486;13.424;2023-05-14T02:22:11;14.60;99.90
8676;DHT22;4375;52.486;13.424;2023-05-14T02:24:37;14.60;99.90
8676;DHT22;4375;52.486;13.424;2023-05-14T02:27:03;14.70;99.90
8676;DHT22;4375;52.486;13.424;2023-05-14T02:29:29;14.60;99.90
8676;DHT22;4375;52.486;13.424;2023-05-14T02:31:55;14.70;99.90
8676;DHT22;4375;52.486;13.424;2023-05-14T02:34:20;14.80;99.90
8676;DHT22;4375;52.486;13.424;2023-05-14T02:36:46;14.70;99.90
8676;DHT22;4375;52.486;13.424;2023-05-14T02:39:12;14.70;99.90
8676;DHT22;4375;52.486;13.424;2023-05-14T02:41:37;14.70;99.90
8676;DHT22;4375;52.486;13.424;2023-05-14T02:44:03;14.80;99.90
8676;DHT22;4375;52.486;13.424;2023-05-14T02:46:30;14.70;99.90
8676;DHT22;4375;52.486;13.424;2023-05-14T02:48:56;14.60;99.90
8676;DHT22;4375;52.486;13.424;2023-05-14T02:51:22;14.50;99.90
8676;DHT22;4375;52.486;13.424;2023-05-14T02:53:48;14.60;99.90
8676;DHT22;4375;52.486;13.424;2023-05-14T02:56:14;14.60;99.90
8676;DHT22;4375;52.486;13.424;2023-05-14T02:58:39;14.60;99.90
8676;DHT22;4375;52.486;13.424;2023-05-14T03:01:05;14.60;99.90
8676;DHT22;4375;52.486;13.424;2023-05-14T03:03:32;14.50;99.90
8676;DHT22;4375;52.486;13.424;2023-05-14T03:05:58;14.50;99.90
8676;DHT22;4375;52.486;13.424;2023-05-14T03:08:23;14.50;99.90
8676;DHT22;4375;52.486;13.424;2023-05-14T03:10:49;14.50;99.90
8676;DHT22;4375;52.486;13.424;2023-05-14T03:13:15;14.50;99.90
8676;DHT22;4375;52.486;13.424;2023-05-14T03:15:43;14.50;99.90
8676;DHT22;4375;52.486;13.424;2023-05-14T03:18:09;14.50;99.90
8676;DHT22;4375;52.486;13.424;2023-05-14T03:20:34;14.50;99.90
8676;DHT22;4375;52.486;13.424;2023-05-14T03:23:00;14.50;99.90
8676;DHT22;4375;52.486;13.424;2023-05-14T03:25:26;14.50;99.90
8676;DHT22;4375;52.486;13.424;2023-05-14T03:27:51;14.50;99.90
8676;DHT22;4375;52.486;13.424;2023-05-14T03:30:17;14.50;99.90
8676;DHT22;4375;52.486;13.424;2023-05-14T03:32:43;14.50;99.90
8676;DHT22;4375;52.486;13.424;2023-05-14T03:35:09;14.50;99.90
8676;DHT22;4375;52.486;13.424;2023-05-14T03:37:34;14.40;99.90
8676;DHT22;4375;52.486;13.424;2023-05-14T03:40:00;14.40;99.90
8676;DHT22;4375;52.486;13.424;2023-05-14T03:42:26;14.50;99.90
8676;DHT22;4375;52.486;13.424;2023-05-14T03:44:51;14.40;99.90
8676;DHT22;4375;52.486;13.424;2023-05-14T03:47:17;14.50;99.90
8676;DHT22;4375;52.486;13.424;2023-05-14T03:49:43;14.50;99.90
8676;DHT22;4375;52.486;13.424;2023-05-14T03:52:08;14.50;99.90
8676;DHT22;4375;52.486;13.424;2023-05-14T03:54:34;14.40;99.90
8676;DHT22;4375;52.486;13.424;2023-05-14T03:57:00;14.40;99.90
8676;DHT22;4375;52.486;13.424;2023-05-14T03:59:26;14.40;99.90
8676;DHT22;4375;52.486;13.424;2023-05-14T04:01:52;14.50;99.90
8676;DHT22;4375;52.486;13.424;2023-05-14T04:04:17;14.50;99.90
8676;DHT22;4375;52.486;13.424;2023-05-14T04:06:43;14.40;99.90
8676;DHT22;4375;52.486;13.424;2023-05-14T04:09:09;14.40;99.90
8676;DHT22;4375;52.486;13.424;2023-05-14T04:11:35;14.30;99.90
8676;DHT22;4375;52.486;13.424;2023-05-14T04:14:01;14.20;99.90
8676;DHT22;4375;52.486;13.424;2023-05-14T04:16:27;14.20;99.90
8676;DHT22;4375;52.486;13.424;2023-05-14T04:18:52;14.20;99.90
8676;DHT22;4375;52.486;13.424;2023-05-14T04:21:18;14.20;99.90
8676;DHT22;4375;52.486;13.424;2023-05-14T04:23:44;14.30;99.90
8676;DHT22;4375;52.486;13.424;2023-05-14T04:26:09;14.40;99.90
8676;DHT22;4375;52.486;13.424;2023-05-14T04:28:35;14.40;99.90
8676;DHT22;4375;52.486;13.424;2023-05-14T04:31:00;14.30;99.90
8676;DHT22;4375;52.486;13.424;2023-05-14T04:33:26;14.40;99.90
8676;DHT22;4375;52.486;13.424;2023-05-14T04:35:52;14.30;99.90
8676;DHT22;4375;52.486;13.424;2023-05-14T04:38:17;14.20;99.90
8676;DHT22;4375;52.486;13.424;2023-05-14T04:40:43;14.10;99.90
8676;DHT22;4375;52.486;13.424;2023-05-14T04:43:09;14.20;99.90
8676;DHT22;4375;52.486;13.424;2023-05-14T04:45:35;14.20;99.90
8676;DHT22;4375;52.486;13.424;2023-05-14T04:48:02;14.20;99.90
8676;DHT22;4375;52.486;13.424;2023-05-14T04:50:28;14.10;99.90
8676;DHT22;4375;52.486;13.424;2023-05-14T04:52:54;14.20;99.90
8676;DHT22;4375;52.486;13.424;2023-05-14T04:55:20;14.20;99.90
8676;DHT22;4375;52.486;13.424;2023-05-14T04:57:46;14.20;99.90
8676;DHT22;4375;52.486;13.424;2023-05-14T05:00:12;14.20;99.90
8676;DHT22;4375;52.486;13.424;2023-05-14T05:02:37;14.30;99.90
8676;DHT22;4375;52.486;13.424;2023-05-14T05:05:03;14.40;99.90
8676;DHT22;4375;52.486;13.424;2023-05-14T05:07:29;14.40;99.90
8676;DHT22;4375;52.486;13.424;2023-05-14T05:09:55;14.50;99.90
8676;DHT22;4375;52.486;13.424;2023-05-14T05:12:20;14.40;99.90
8676;DHT22;4375;52.486;13.424;2023-05-14T05:14:47;14.50;99.90
8676;DHT22;4375;52.486;13.424;2023-05-14T05:17:13;14.60;99.90
8676;DHT22;4375;52.486;13.424;2023-05-14T05:19:39;14.60;99.90
8676;DHT22;4375;52.486;13.424;2023-05-14T05:22:04;14.60;99.90
8676;DHT22;4375;52.486;13.424;2023-05-14T05:24:30;14.60;99.90
8676;DHT22;4375;52.486;13.424;2023-05-14T05:26:56;14.70;99.90
8676;DHT22;4375;52.486;13.424;2023-05-14T05:29:22;14.90;99.90
8676;DHT22;4375;52.486;13.424;2023-05-14T05:31:48;15.20;99.90
8676;DHT22;4375;52.486;13.424;2023-05-14T05:34:13;15.10;99.90
8676;DHT22;4375;52.486;13.424;2023-05-14T05:36:39;15.10;99.90
8676;DHT22;4375;52.486;13.424;2023-05-14T05:39:05;15.10;99.90
8676;DHT22;4375;52.486;13.424;2023-05-14T05:41:31;15.20;99.90
8676;DHT22;4375;52.486;13.424;2023-05-14T05:43:56;15.10;99.90
8676;DHT22;4375;52.486;13.424;2023-05-14T05:46:22;15.10;99.90
8676;DHT22;4375;52.486;13.424;2023-05-14T05:48:48;15.10;99.90
8676;DHT22;4375;52.486;13.424;2023-05-14T05:51:13;15.10;99.90
8676;DHT22;4375;52.486;13.424;2023-05-14T05:53:39;14.90;99.90
8676;DHT22;4375;52.486;13.424;2023-05-14T05:56:05;15.10;99.90
8676;DHT22;4375;52.486;13.424;2023-05-14T05:58:31;15.20;99.90
8676;DHT22;4375;52.486;13.424;2023-05-14T06:00:57;15.40;99.90
8676;DHT22;4375;52.486;13.424;2023-05-14T06:03:23;15.50;99.90
8676;DHT22;4375;52.486;13.424;2023-05-14T06:05:49;15.50;99.90
8676;DHT22;4375;52.486;13.424;2023-05-14T06:08:17;15.40;99.90
8676;DHT22;4375;52.486;13.424;2023-05-14T06:10:42;15.80;99.90
8676;DHT22;4375;52.486;13.424;2023-05-14T06:13:08;16.00;99.90
8676;DHT22;4375;52.486;13.424;2023-05-14T06:15:34;16.10;99.90
8676;DHT22;4375;52.486;13.424;2023-05-14T06:17:59;16.20;99.90
8676;DHT22;4375;52.486;13.424;2023-05-14T06:20:25;16.30;99.90
8676;DHT22;4375;52.486;13.424;2023-05-14T06:22:50;16.40;99.90
8676;DHT22;4375;52.486;13.424;2023-05-14T06:25:16;16.40;99.90
8676;DHT22;4375;52.486;13.424;2023-05-14T06:27:42;16.30;99.90
8676;DHT22;4375;52.486;13.424;2023-05-14T06:30:08;16.20;99.90
8676;DHT22;4375;52.486;13.424;2023-05-14T06:32:35;16.20;99.90
8676;DHT22;4375;52.486;13.424;2023-05-14T06:35:01;16.20;99.90
8676;DHT22;4375;52.486;13.424;2023-05-14T06:37:27;16.20;99.90
8676;DHT22;4375;52.486;13.424;2023-05-14T06:39:52;16.30;99.90
8676;DHT22;4375;52.486;13.424;2023-05-14T06:42:18;16.40;99.90
8676;DHT22;4375;52.486;13.424;2023-05-14T06:44:44;16.50;99.90
8676;DHT22;4375;52.486;13.424;2023-05-14T06:47:10;16.60;99.90
8676;DHT22;4375;52.486;13.424;2023-05-14T06:49:35;16.70;99.90
8676;DHT22;4375;52.486;13.424;2023-05-14T06:52:01;16.80;99.90
8676;DHT22;4375;52.486;13.424;2023-05-14T06:54:28;16.80;99.90
8676;DHT22;4375;52.486;13.424;2023-05-14T06:56:53;16.90;99.90
8676;DHT22;4375;52.486;13.424;2023-05-14T06:59:19;17.00;99.90
8676;DHT22;4375;52.486;13.424;2023-05-14T07:01:45;16.90;99.90
8676;DHT22;4375;52.486;13.424;2023-05-14T07:04:10;17.00;99.90
8676;DHT22;4375;52.486;13.424;2023-05-14T07:06:36;16.90;99.90
8676;DHT22;4375;52.486;13.424;2023-05-14T07:09:02;16.90;99.90
8676;DHT22;4375;52.486;13.424;2023-05-14T07:11:27;17.10;99.90
8676;DHT22;4375;52.486;13.424;2023-05-14T07:13:53;17.20;99.90
8676;DHT22;4375;52.486;13.424;2023-05-14T07:16:19;17.10;99.90
8676;DHT22;4375;52.486;13.424;2023-05-14T07:18:45;17.30;99.90
8676;DHT22;4375;52.486;13.424;2023-05-14T07:21:10;17.70;99.90
8676;DHT22;4375;52.486;13.424;2023-05-14T07:23:36;17.80;99.90
8676;DHT22;4375;52.486;13.424;2023-05-14T07:26:06;17.60;99.90
8676;DHT22;4375;52.486;13.424;2023-05-14T07:28:32;17.60;99.90
8676;DHT22;4375;52.486;13.424;2023-05-14T07:30:58;17.70;99.90
8676;DHT22;4375;52.486;13.424;2023-05-14T07:33:24;18.00;99.90
8676;DHT22;4375;52.486;13.424;2023-05-14T07:35:50;18.30;99.90
8676;DHT22;4375;52.486;13.424;2023-05-14T07:38:16;18.60;99.90
8676;DHT22;4375;52.486;13.424;2023-05-14T07:40:42;18.80;99.90
8676;DHT22;4375;52.486;13.424;2023-05-14T07:43:11;18.80;99.90
8676;DHT22;4375;52.486;13.424;2023-05-14T07:45:37;19.20;99.90
8676;DHT22;4375;52.486;13.424;2023-05-14T07:48:04;19.70;99.40
8676;DHT22;4375;52.486;13.424;2023-05-14T07:50:30;19.70;98.40
8676;DHT22;4375;52.486;13.424;2023-05-14T07:52:56;19.90;97.80
8676;DHT22;4375;52.486;13.424;2023-05-14T07:55:22;20.40;96.70
8676;DHT22;4375;52.486;13.424;2023-05-14T08:00:25;20.50;94.80
8676;DHT22;4375;52.486;13.424;2023-05-14T08:02:51;20.40;94.10
8676;DHT22;4375;52.486;13.424;2023-05-14T08:05:16;20.50;93.90
8676;DHT22;4375;52.486;13.424;2023-05-14T08:07:43;20.60;93.60
8676;DHT22;4375;52.486;13.424;2023-05-14T08:10:09;20.60;92.90
8676;DHT22;4375;52.486;13.424;2023-05-14T08:12:34;20.70;93.10
8676;DHT22;4375;52.486;13.424;2023-05-14T08:15:01;21.20;92.90
8676;DHT22;4375;52.486;13.424;2023-05-14T08:17:27;21.90;91.50
8676;DHT22;4375;52.486;13.424;2023-05-14T08:19:53;22.10;90.50
8676;DHT22;4375;52.486;13.424;2023-05-14T08:22:18;22.60;89.60
8676;DHT22;4375;52.486;13.424;2023-05-14T08:24:46;22.60;86.70
8676;DHT22;4375;52.486;13.424;2023-05-14T08:27:11;22.90;86.00
8676;DHT22;4375;52.486;13.424;2023-05-14T08:29:37;23.40;86.00
8676;DHT22;4375;52.486;13.424;2023-05-14T08:32:03;23.00;84.90
8676;DHT22;4375;52.486;13.424;2023-05-14T08:34:29;22.90;83.50
8676;DHT22;4375;52.486;13.424;2023-05-14T08:36:55;22.50;82.60
8676;DHT22;4375;52.486;13.424;2023-05-14T08:39:21;22.10;83.80
8676;DHT22;4375;52.486;13.424;2023-05-14T08:41:47;21.70;84.70
8676;DHT22;4375;52.486;13.424;2023-05-14T08:44:25;21.80;85.50
8676;DHT22;4375;52.486;13.424;2023-05-14T08:46:54;22.20;83.10
8676;DHT22;4375;52.486;13.424;2023-05-14T08:49:41;22.40;82.30
8676;DHT22;4375;52.486;13.424;2023-05-14T08:52:08;22.60;81.80
8676;DHT22;4375;52.486;13.424;2023-05-14T08:54:34;23.10;80.90
8676;DHT22;4375;52.486;13.424;2023-05-14T08:57:00;22.60;81.00
8676;DHT22;4375;52.486;13.424;2023-05-14T08:59:25;22.70;79.20
8676;DHT22;4375;52.486;13.424;2023-05-14T09:01:53;22.50;80.30
8676;DHT22;4375;52.486;13.424;2023-05-14T09:04:21;23.50;80.00
8676;DHT22;4375;52.486;13.424;2023-05-14T09:06:49;23.30;77.00
8676;DHT22;4375;52.486;13.424;2023-05-14T09:09:14;23.90;77.40
8676;DHT22;4375;52.486;13.424;2023-05-14T09:11:48;25.20;75.00
8676;DHT22;4375;52.486;13.424;2023-05-14T09:14:14;26.10;71.30
8676;DHT22;4375;52.486;13.424;2023-05-14T09:16:40;26.60;69.10
8676;DHT22;4375;52.486;13.424;2023-05-14T09:19:09;26.00;64.90
8676;DHT22;4375;52.486;13.424;2023-05-14T09:21:35;26.20;65.40
8676;DHT22;4375;52.486;13.424;2023-05-14T09:24:01;26.20;67.20
8676;DHT22;4375;52.486;13.424;2023-05-14T09:26:30;26.90;65.50
8676;DHT22;4375;52.486;13.424;2023-05-14T09:29:00;27.10;63.80
8676;DHT22;4375;52.486;13.424;2023-05-14T09:31:28;25.60;63.50
8676;DHT22;4375;52.486;13.424;2023-05-14T09:33:54;24.50;66.00
8676;DHT22;4375;52.486;13.424;2023-05-14T09:36:19;24.90;66.90
8676;DHT22;4375;52.486;13.424;2023-05-14T09:38:45;25.70;65.00
8676;DHT22;4375;52.486;13.424;2023-05-14T09:41:11;26.30;64.30
8676;DHT22;4375;52.486;13.424;2023-05-14T09:43:36;25.90;63.70
8676;DHT22;4375;52.486;13.424;2023-05-14T09:46:02;25.30;63.40
8676;DHT22;4375;52.486;13.424;2023-05-14T09:48:28;24.80;64.30
8676;DHT22;4375;52.486;13.424;2023-05-14T09:50:54;24.70;65.00
8676;DHT22;4375;52.486;13.424;2023-05-14T09:53:20;24.60;64.60
8676;DHT22;4375;52.486;13.424;2023-05-14T09:55:46;24.10;65.10
8676;DHT22;4375;52.486;13.424;2023-05-14T09:58:11;23.90;64.90
8676;DHT22;4375;52.486;13.424;2023-05-14T10:00:43;23.80;65.00
8676;DHT22;4375;52.486;13.424;2023-05-14T10:03:13;23.80;65.00
8676;DHT22;4375;52.486;13.424;2023-05-14T10:05:43;23.50;64.70
8676;DHT22;4375;52.486;13.424;2023-05-14T10:08:34;22.90;65.30
8676;DHT22;4375;52.486;13.424;2023-05-14T10:11:02;22.80;65.00
8676;DHT22;4375;52.486;13.424;2023-05-14T10:13:32;22.20;66.60
8676;DHT22;4375;52.486;13.424;2023-05-14T10:16:18;21.80;67.90
8676;DHT22;4375;52.486;13.424;2023-05-14T10:18:48;21.50;67.90
8676;DHT22;4375;52.486;13.424;2023-05-14T10:21:19;21.40;68.70
8676;DHT22;4375;52.486;13.424;2023-05-14T10:23:46;21.30;69.30
8676;DHT22;4375;52.486;13.424;2023-05-14T10:26:13;21.10;68.90
8676;DHT22;4375;52.486;13.424;2023-05-14T10:28:39;20.90;69.80
8676;DHT22;4375;52.486;13.424;2023-05-14T10:31:08;20.90;69.50
8676;DHT22;4375;52.486;13.424;2023-05-14T10:33:46;21.20;69.60
8676;DHT22;4375;52.486;13.424;2023-05-14T10:36:13;21.40;69.80
8676;DHT22;4375;52.486;13.424;2023-05-14T10:38:39;21.60;68.40
8676;DHT22;4375;52.486;13.424;2023-05-14T10:41:09;21.40;68.50
8676;DHT22;4375;52.486;13.424;2023-05-14T10:43:39;21.40;69.10
8676;DHT22;4375;52.486;13.424;2023-05-14T10:46:06;21.50;69.50
8676;DHT22;4375;52.486;13.424;2023-05-14T10:48:32;21.20;69.50
8676;DHT22;4375;52.486;13.424;2023-05-14T10:50:58;21.20;70.30
8676;DHT22;4375;52.486;13.424;2023-05-14T10:53:40;21.30;70.30
8676;DHT22;4375;52.486;13.424;2023-05-14T10:56:08;21.50;70.40
8676;DHT22;4375;52.486;13.424;2023-05-14T10:58:35;21.50;70.10
8676;DHT22;4375;52.486;13.424;2023-05-14T11:01:01;21.50;69.30
8676;DHT22;4375;52.486;13.424;2023-05-14T11:03:30;21.30;70.00
8676;DHT22;4375;52.486;13.424;2023-05-14T11:05:56;21.10;70.90
8676;DHT22;4375;52.486;13.424;2023-05-14T11:08:25;20.90;71.50
8676;DHT22;4375;52.486;13.424;2023-05-14T11:10:51;20.90;72.20
8676;DHT22;4375;52.486;13.424;2023-05-14T11:13:18;20.60;72.10
8676;DHT22;4375;52.486;13.424;2023-05-14T11:15:44;20.50;72.60
8676;DHT22;4375;52.486;13.424;2023-05-14T11:18:12;20.40;72.60
8676;DHT22;4375;52.486;13.424;2023-05-14T11:20:38;20.50;72.90
8676;DHT22;4375;52.486;13.424;2023-05-14T11:23:04;20.40;72.60
8676;DHT22;4375;52.486;13.424;2023-05-14T11:25:29;20.30;73.10
8676;DHT22;4375;52.486;13.424;2023-05-14T11:27:55;20.40;72.80
8676;DHT22;4375;52.486;13.424;2023-05-14T11:30:23;20.50;73.30
8676;DHT22;4375;52.486;13.424;2023-05-14T11:32:49;20.60;72.50
8676;DHT22;4375;52.486;13.424;2023-05-14T11:35:16;20.70;72.50
8676;DHT22;4375;52.486;13.424;2023-05-14T11:37:47;20.80;72.40
8676;DHT22;4375;52.486;13.424;2023-05-14T11:40:14;20.80;72.70
8676;DHT22;4375;52.486;13.424;2023-05-14T11:42:43;21.10;73.30
8676;DHT22;4375;52.486;13.424;2023-05-14T11:45:13;20.90;73.40
8676;DHT22;4375;52.486;13.424;2023-05-14T11:47:48;20.80;73.50
8676;DHT22;4375;52.486;13.424;2023-05-14T11:50:15;20.50;74.20
8676;DHT22;4375;52.486;13.424;2023-05-14T11:52:41;20.40;75.10
8676;DHT22;4375;52.486;13.424;2023-05-14T11:55:11;20.50;75.50
8676;DHT22;4375;52.486;13.424;2023-05-14T11:57:37;20.60;75.00
8676;DHT22;4375;52.486;13.424;2023-05-14T12:00:03;20.60;75.20
8676;DHT22;4375;52.486;13.424;2023-05-14T12:02:32;20.50;75.60
8676;DHT22;4375;52.486;13.424;2023-05-14T12:04:59;20.70;75.90
8676;DHT22;4375;52.486;13.424;2023-05-14T12:07:27;20.80;76.00
8676;DHT22;4375;52.486;13.424;2023-05-14T12:09:53;21.10;75.80
8676;DHT22;4375;52.486;13.424;2023-05-14T12:12:22;21.30;75.80
8676;DHT22;4375;52.486;13.424;2023-05-14T12:14:49;21.60;75.30
8676;DHT22;4375;52.486;13.424;2023-05-14T12:17:20;21.70;74.80
8676;DHT22;4375;52.486;13.424;2023-05-14T12:19:50;21.90;74.60
8676;DHT22;4375;52.486;13.424;2023-05-14T12:22:20;21.80;74.00
8676;DHT22;4375;52.486;13.424;2023-05-14T12:24:54;21.70;74.40
8676;DHT22;4375;52.486;13.424;2023-05-14T12:27:24;21.90;74.50
8676;DHT22;4375;52.486;13.424;2023-05-14T12:30:01;21.80;74.70
8676;DHT22;4375;52.486;13.424;2023-05-14T12:32:30;22.00;73.80
8676;DHT22;4375;52.486;13.424;2023-05-14T12:34:56;21.80;73.60
8676;DHT22;4375;52.486;13.424;2023-05-14T12:37:22;21.80;74.10
8676;DHT22;4375;52.486;13.424;2023-05-14T12:39:47;21.70;73.40
8676;DHT22;4375;52.486;13.424;2023-05-14T12:42:16;21.60;74.10
8676;DHT22;4375;52.486;13.424;2023-05-14T12:44:42;21.20;73.60
8676;DHT22;4375;52.486;13.424;2023-05-14T12:47:07;21.40;74.40
8676;DHT22;4375;52.486;13.424;2023-05-14T12:49:33;21.30;74.00
8676;DHT22;4375;52.486;13.424;2023-05-14T12:51:59;21.20;74.60
8676;DHT22;4375;52.486;13.424;2023-05-14T12:54:24;21.10;73.10
8676;DHT22;4375;52.486;13.424;2023-05-14T12:56:50;21.20;72.90
8676;DHT22;4375;52.486;13.424;2023-05-14T12:59:16;21.20;71.50
8676;DHT22;4375;52.486;13.424;2023-05-14T13:01:41;21.10;72.50
8676;DHT22;4375;52.486;13.424;2023-05-14T13:04:09;21.20;73.50
8676;DHT22;4375;52.486;13.424;2023-05-14T13:06:37;21.00;74.00
8676;DHT22;4375;52.486;13.424;2023-05-14T13:09:03;21.00;72.30
8676;DHT22;4375;52.486;13.424;2023-05-14T13:11:28;20.90;70.90
8676;DHT22;4375;52.486;13.424;2023-05-14T13:13:59;21.00;70.20
8676;DHT22;4375;52.486;13.424;2023-05-14T13:16:26;20.80;69.80
8676;DHT22;4375;52.486;13.424;2023-05-14T13:18:52;20.60;70.40
8676;DHT22;4375;52.486;13.424;2023-05-14T13:21:18;20.60;69.90
8676;DHT22;4375;52.486;13.424;2023-05-14T13:23:44;20.60;70.40
8676;DHT22;4375;52.486;13.424;2023-05-14T13:26:10;20.60;70.10
8676;DHT22;4375;52.486;13.424;2023-05-14T13:28:35;20.70;69.40
8676;DHT22;4375;52.486;13.424;2023-05-14T13:31:11;20.70;69.20
8676;DHT22;4375;52.486;13.424;2023-05-14T13:33:39;20.80;70.00
8676;DHT22;4375;52.486;13.424;2023-05-14T13:36:06;20.80;69.20
8676;DHT22;4375;52.486;13.424;2023-05-14T13:38:32;20.90;69.10
8676;DHT22;4375;52.486;13.424;2023-05-14T13:40:58;20.90;69.20
8676;DHT22;4375;52.486;13.424;2023-05-14T13:43:30;20.90;69.30
8676;DHT22;4375;52.486;13.424;2023-05-14T13:45:56;20.90;68.50
8676;DHT22;4375;52.486;13.424;2023-05-14T13:48:22;20.80;68.70
8676;DHT22;4375;52.486;13.424;2023-05-14T13:50:48;20.70;69.60
8676;DHT22;4375;52.486;13.424;2023-05-14T13:53:14;20.70;69.40
8676;DHT22;4375;52.486;13.424;2023-05-14T13:55:40;20.60;70.00
8676;DHT22;4375;52.486;13.424;2023-05-14T13:58:06;20.70;70.10
8676;DHT22;4375;52.486;13.424;2023-05-14T14:00:32;20.60;69.50
8676;DHT22;4375;52.486;13.424;2023-05-14T14:02:58;20.70;69.80
8676;DHT22;4375;52.486;13.424;2023-05-14T14:05:24;20.80;70.50
8676;DHT22;4375;52.486;13.424;2023-05-14T14:07:53;20.80;70.10
8676;DHT22;4375;52.486;13.424;2023-05-14T14:10:18;21.10;70.10
8676;DHT22;4375;52.486;13.424;2023-05-14T14:12:44;21.00;69.60
8676;DHT22;4375;52.486;13.424;2023-05-14T14:15:10;21.00;69.80
8676;DHT22;4375;52.486;13.424;2023-05-14T14:17:36;20.80;69.60
8676;DHT22;4375;52.486;13.424;2023-05-14T14:20:04;20.90;69.80
8676;DHT22;4375;52.486;13.424;2023-05-14T14:22:30;21.10;68.20
8676;DHT22;4375;52.486;13.424;2023-05-14T14:24:56;21.00;68.70
8676;DHT22;4375;52.486;13.424;2023-05-14T14:27:21;21.00;68.70
8676;DHT22;4375;52.486;13.424;2023-05-14T14:29:47;21.10;67.20
8676;DHT22;4375;52.486;13.424;2023-05-14T14:32:12;21.20;67.40
8676;DHT22;4375;52.486;13.424;2023-05-14T14:34:38;21.00;66.60
8676;DHT22;4375;52.486;13.424;2023-05-14T14:37:04;21.10;66.80
8676;DHT22;4375;52.486;13.424;2023-05-14T14:39:29;21.20;67.40
8676;DHT22;4375;52.486;13.424;2023-05-14T14:41:55;21.30;66.90
8676;DHT22;4375;52.486;13.424;2023-05-14T14:44:21;21.30;67.10
8676;DHT22;4375;52.486;13.424;2023-05-14T14:46:46;21.30;66.50
8676;DHT22;4375;52.486;13.424;2023-05-14T14:49:12;21.30;67.00
8676;DHT22;4375;52.486;13.424;2023-05-14T14:51:38;21.40;66.50
8676;DHT22;4375;52.486;13.424;2023-05-14T14:54:03;21.30;66.90
8676;DHT22;4375;52.486;13.424;2023-05-14T14:56:29;21.40;66.10
8676;DHT22;4375;52.486;13.424;2023-05-14T14:58:55;21.30;65.90
8676;DHT22;4375;52.486;13.424;2023-05-14T15:01:21;21.50;66.90
8676;DHT22;4375;52.486;13.424;2023-05-14T15:03:47;21.60;66.60
8676;DHT22;4375;52.486;13.424;2023-05-14T15:06:13;21.40;65.90
8676;DHT22;4375;52.486;13.424;2023-05-14T15:08:39;21.40;66.30
8676;DHT22;4375;52.486;13.424;2023-05-14T15:11:04;21.50;66.20
8676;DHT22;4375;52.486;13.424;2023-05-14T15:13:33;21.40;66.20
8676;DHT22;4375;52.486;13.424;2023-05-14T15:15:58;21.30;65.70
8676;DHT22;4375;52.486;13.424;2023-05-14T15:18:24;21.40;66.10
8676;DHT22;4375;52.486;13.424;2023-05-14T15:20:50;21.30;66.00
8676;DHT22;4375;52.486;13.424;2023-05-14T15:23:17;21.50;66.50
8676;DHT22;4375;52.486;13.424;2023-05-14T15:25:43;21.20;66.20
8676;DHT22;4375;52.486;13.424;2023-05-14T15:28:08;21.20;66.40
8676;DHT22;4375;52.486;13.424;2023-05-14T15:30:34;21.20;66.50
8676;DHT22;4375;52.486;13.424;2023-05-14T15:33:00;21.10;67.20
8676;DHT22;4375;52.486;13.424;2023-05-14T15:35:25;21.00;67.50
8676;DHT22;4375;52.486;13.424;2023-05-14T15:37:54;20.90;67.40
8676;DHT22;4375;52.486;13.424;2023-05-14T15:40:19;20.80;68.10
8676;DHT22;4375;52.486;13.424;2023-05-14T15:42:45;20.90;68.50
8676;DHT22;4375;52.486;13.424;2023-05-14T15:45:12;20.90;69.00
8676;DHT22;4375;52.486;13.424;2023-05-14T15:47:39;20.90;69.00
8676;DHT22;4375;52.486;13.424;2023-05-14T15:50:05;20.90;69.50